Airfield :
LOGIN :

Register | Disclaimer

   EN    FR    IT 

 










Legend :    VFR   Marginal VFR   IFR   Intensive IFR   Very Intensive IFR
Visi :
Ceiling :
>= 8 km
>= 3000ft
5 to 8 km
1000 to 3000 ft
1500m to 5 km
500 to 1000 ft
800 to 1500m
200 to 500 ft
< 800m
< 200 ft
Symbols :   Thunderstorms  Fog  Heavy snow  Heavy precipitations  Wind > 20 kt
SIGMETs :     Misc.  Thunderstorms  Icing  Turbulence  Mountain Waves  Volcanic Ashes






- Airport Elevation : 138 ft
- IATA code : RLG


ETNL - Rostock Laage

CURRENT METAR :
  • 221620Z 25018G30KT 9999 FEW030 BKN050 08/04 Q1006 BLU

EXPIRED METARs :
  • 221544Z 25017G28KT 9999 -RA SCT020 BKN065 08/05 Q1006 BLU
  • 221520Z 26023G40KT 7000 -RA SCT020 BKN035 07/05 Q1006 RERA WHT
  • 221504Z 27023G34KT 6000 -RA FEW010 BKN018 08/06 Q1006 RERA WHT
  • 221433Z 26018G30KT 4200 RADZ BR FEW010 BKN017 08/06 Q1006 GRN

TAF TAF ETNL
Valid from the 22 at 12:00 until the 23 at 00:00 UTC


221109Z 2212/2224 22015G30KT 7000 -RA SCT010 BKN030
TEMPO 2212/2215 24022G40KT 4000 RA BKN006 OVC020
TEMPO 2215/2224 26020G35KT 4000 SHRA SCT010 BKN020TCU
PROB30 2215/2221 27020G40KT 2000 +SHRA BKN008 BKN015CB BY ETGL



MET'MAP, your aeronautical weather chart ! - Copyright ORBIFLY December 2007 - Disclaimer

ORBIFLY MET'MAP TEAM :

Programming & Development : Alexandra Zaïnal
Concept & original design : Baudouin d'Aumeries
Assistance for programming : Marc-Olivier Méhu
Technical & hardware support : Manuel Goepfert

Contact : metmap@orbifly.com




SOURCES & CREDITS :

   NOAA